Time;durP1;ratioP1;P1;durP2;ratioP2;P2;SDS_P1;SDS_P2;PMS_P1;PMS_P2;Temp;Humidity;BMP_temperature;BMP_pressure;BME280_temperature;BME280_humidity;BME280_pressure;Samples;Min_cycle;Max_cycle;Signal;HPM_P1;HPM_P2
2022/01/17 00:00:31;;;;;;;6.78;5.68;;;18.70;30.70;;;;;;5108567;27;46971;-14
2022/01/17 00:02:59;;;;;;;7.18;6.30;;;18.70;30.70;;;;;;5108737;27;46809;-15
2022/01/17 00:05:26;;;;;;;7.10;6.40;;;18.70;30.60;;;;;;5109403;27;47280;-15
2022/01/17 00:07:54;;;;;;;7.93;6.60;;;18.70;30.60;;;;;;5108326;27;47836;-14
2022/01/17 00:10:21;;;;;;;8.77;6.18;;;18.70;30.60;;;;;;5108826;27;46892;-15
2022/01/17 00:12:50;;;;;;;8.30;6.45;;;18.70;31.30;;;;;;5108304;27;46864;-14
2022/01/17 00:15:22;;;;;;;9.07;6.53;;;18.70;30.70;;;;;;5109054;27;46895;-15
2022/01/17 00:17:52;;;;;;;6.90;6.20;;;18.70;30.70;;;;;;5108164;27;48179;-15
2022/01/17 00:20:25;;;;;;;7.00;6.28;;;18.70;30.70;;;;;;5108724;27;46792;-14
2022/01/17 00:22:54;;;;;;;8.10;6.85;;;18.70;30.60;;;;;;5108239;27;46898;-14
2022/01/17 00:25:20;;;;;;;7.18;6.45;;;18.70;30.60;;;;;;5108579;27;46989;-15
2022/01/17 00:27:48;;;;;;;7.47;6.13;;;18.70;30.60;;;;;;5108196;27;47064;-15
2022/01/17 00:30:15;;;;;;;7.72;6.15;;;18.70;30.70;;;;;;5108221;27;47209;-14
2022/01/17 00:32:42;;;;;;;8.35;6.65;;;18.70;30.70;;;;;;5108267;27;46893;-15
2022/01/17 00:35:09;;;;;;;7.75;6.30;;;18.70;30.70;;;;;;5108798;27;47040;-14
2022/01/17 00:37:36;;;;;;;7.63;6.40;;;18.70;30.70;;;;;;5108124;27;46887;-15
2022/01/17 00:40:05;;;;;;;8.73;6.57;;;18.70;30.60;;;;;;5108347;27;46962;-15
2022/01/17 00:42:31;;;;;;;7.22;6.38;;;18.70;30.60;;;;;;5108162;27;46774;-14
2022/01/17 00:45:01;;;;;;;7.10;6.07;;;18.70;30.60;;;;;;5108505;27;47269;-16
2022/01/17 00:47:27;;;;;;;7.00;5.78;;;18.70;30.70;;;;;;5108175;27;48121;-15
2022/01/17 00:49:54;;;;;;;8.45;6.53;;;18.70;30.70;;;;;;5108159;27;46875;-14
2022/01/17 00:52:21;;;;;;;7.63;6.32;;;18.60;30.60;;;;;;5106892;27;46846;-14
2022/01/17 00:54:47;;;;;;;7.40;6.07;;;18.70;30.60;;;;;;5108152;27;46926;-15
2022/01/17 00:57:15;;;;;;;6.93;6.20;;;18.70;30.60;;;;;;5107747;27;48240;-15
2022/01/17 00:59:42;;;;;;;6.88;6.18;;;18.70;30.60;;;;;;5107711;27;46982;-14
2022/01/17 01:02:09;;;;;;;7.43;6.35;;;18.70;30.60;;;;;;5107960;27;47003;-15
2022/01/17 01:04:35;;;;;;;7.35;6.30;;;18.70;30.70;;;;;;5108129;27;46882;-15
2022/01/17 01:07:02;;;;;;;8.35;6.60;;;18.70;31.30;;;;;;5107847;27;48276;-14
2022/01/17 01:09:34;;;;;;;7.32;5.65;;;18.70;30.70;;;;;;5107761;27;46900;-15
2022/01/17 01:12:01;;;;;;;8.30;6.20;;;18.70;30.70;;;;;;5107973;27;46876;-15
2022/01/17 01:14:29;;;;;;;6.47;5.57;;;18.70;30.60;;;;;;5107781;27;46888;-15
2022/01/17 01:16:57;;;;;;;7.43;6.32;;;18.70;30.60;;;;;;5107400;27;47844;-15
2022/01/17 01:19:28;;;;;;;7.45;5.70;;;18.70;30.60;;;;;;5107725;27;47027;-15
2022/01/17 01:27:37;;;;;;;7.55;6.07;;;18.70;30.70;;;;;;5107790;27;46872;-14
2022/01/17 01:27:44;;;;;;;7.18;5.93;;;18.70;30.60;;;;;;5104635;27;47478;-15
2022/01/17 01:30:15;;;;;;;7.35;5.82;;;18.70;30.60;;;;;;5107715;27;47292;-15
2022/01/17 01:32:46;;;;;;;8.32;6.53;;;18.70;30.60;;;;;;5107398;27;46809;-15
2022/01/17 01:35:15;;;;;;;7.55;6.43;;;18.70;30.60;;;;;;5107565;27;47117;-14
2022/01/17 01:37:44;;;;;;;6.78;5.82;;;18.60;31.20;;;;;;5106942;27;46876;-14
2022/01/17 01:40:11;;;;;;;7.07;5.97;;;18.70;30.70;;;;;;5107318;27;46905;-14
2022/01/17 01:42:38;;;;;;;7.57;6.50;;;18.70;30.70;;;;;;5107030;27;46826;-15
2022/01/17 01:45:07;;;;;;;5.88;5.25;;;18.60;30.70;;;;;;5107559;27;47198;-14
2022/01/17 01:47:35;;;;;;;7.45;5.72;;;18.70;30.70;;;;;;5106840;27;49048;-15
2022/01/17 01:50:02;;;;;;;7.47;6.00;;;18.70;30.70;;;;;;5106937;27;47312;-15
2022/01/17 01:52:29;;;;;;;6.47;5.72;;;18.70;30.80;;;;;;5106884;27;46895;-15
2022/01/17 01:54:55;;;;;;;6.38;5.43;;;18.60;30.80;;;;;;5107426;27;46907;-15
2022/01/17 01:57:22;;;;;;;6.32;5.25;;;18.70;30.80;;;;;;5107131;27;47995;-15
2022/01/17 01:59:49;;;;;;;6.38;5.45;;;18.70;30.80;;;;;;5106991;27;46896;-15
2022/01/17 02:02:15;;;;;;;6.60;5.90;;;18.70;30.80;;;;;;5107174;27;46933;-14
2022/01/17 02:04:43;;;;;;;6.28;5.20;;;18.70;30.80;;;;;;5106723;27;46770;-15
2022/01/17 02:07:10;;;;;;;6.35;5.28;;;18.70;30.80;;;;;;5106884;27;49070;-15
2022/01/17 02:09:37;;;;;;;6.97;5.57;;;18.70;30.80;;;;;;5106612;27;47095;-15
2022/01/17 02:12:05;;;;;;;6.85;5.43;;;18.70;30.80;;;;;;5107143;27;46940;-15
2022/01/17 02:14:32;;;;;;;8.07;5.90;;;18.70;30.80;;;;;;5106547;27;47337;-15
2022/01/17 02:17:02;;;;;;;7.57;5.47;;;18.70;30.80;;;;;;5106479;27;47910;-15
2022/01/17 02:19:30;;;;;;;6.38;5.55;;;18.70;30.80;;;;;;5106678;27;47249;-14
2022/01/17 02:21:58;;;;;;;6.93;6.05;;;18.70;30.80;;;;;;5106494;27;47019;-15
2022/01/17 02:24:25;;;;;;;6.65;5.60;;;18.70;30.80;;;;;;5107027;27;46992;-16
2022/01/17 02:26:52;;;;;;;6.28;5.68;;;18.70;30.80;;;;;;5106362;27;47853;-14
2022/01/17 02:29:19;;;;;;;6.55;5.85;;;18.70;30.80;;;;;;5106478;27;46880;-15
2022/01/17 02:31:47;;;;;;;7.25;5.97;;;18.70;30.80;;;;;;5106545;27;46957;-16
2022/01/17 02:34:13;;;;;;;6.85;5.50;;;18.70;30.80;;;;;;5106251;27;47056;-14
2022/01/17 02:36:40;;;;;;;6.80;5.90;;;18.70;30.70;;;;;;5106423;27;48791;-15
2022/01/17 02:39:08;;;;;;;6.82;5.97;;;18.70;30.70;;;;;;5106307;27;46861;-15
2022/01/17 02:41:36;;;;;;;6.72;6.03;;;18.70;30.70;;;;;;5106385;27;46916;-14
2022/01/17 02:44:03;;;;;;;7.28;5.90;;;18.70;30.60;;;;;;5106142;27;46900;-15
2022/01/17 02:46:30;;;;;;;7.95;6.05;;;18.70;30.70;;;;;;5105990;27;47857;-15
2022/01/17 02:48:58;;;;;;;6.72;5.88;;;18.60;30.70;;;;;;5106122;27;47137;-15
2022/01/17 02:51:24;;;;;;;7.82;6.40;;;18.70;30.70;;;;;;5106397;27;46896;-14
2022/01/17 02:53:51;;;;;;;7.05;5.65;;;18.70;30.80;;;;;;5106308;27;47189;-14
2022/01/17 02:56:19;;;;;;;7.25;5.88;;;18.70;30.70;;;;;;5106217;27;47851;-18
2022/01/17 02:58:46;;;;;;;6.57;5.68;;;18.70;30.80;;;;;;5105658;27;46810;-19
2022/01/17 03:01:15;;;;;;;7.28;6.05;;;18.60;30.80;;;;;;5106177;27;46799;-19
2022/01/17 03:03:42;;;;;;;6.43;5.47;;;18.60;30.80;;;;;;5105792;27;46878;-19
2022/01/17 03:06:09;;;;;;;7.18;5.50;;;18.60;30.80;;;;;;5105725;27;49060;-19
2022/01/17 03:08:35;;;;;;;7.32;6.15;;;18.60;30.80;;;;;;5105884;27;47012;-19
2022/01/17 03:11:05;;;;;;;7.35;6.20;;;18.60;30.80;;;;;;5106229;27;46940;-19
2022/01/17 03:13:35;;;;;;;7.72;5.80;;;18.60;30.70;;;;;;5105693;27;47112;-19
2022/01/17 03:16:04;;;;;;;7.40;5.93;;;18.60;30.80;;;;;;5106907;27;47839;-19
2022/01/17 03:18:32;;;;;;;6.28;5.68;;;18.60;30.80;;;;;;5109412;27;47152;-19
2022/01/17 03:20:59;;;;;;;6.15;5.47;;;18.60;30.80;;;;;;5109345;27;46891;-19
2022/01/17 03:23:27;;;;;;;7.93;6.05;;;18.60;30.80;;;;;;5109375;27;46896;-20
2022/01/17 03:25:54;;;;;;;7.32;5.82;;;18.60;30.80;;;;;;5109521;27;48106;-19
2022/01/17 03:28:20;;;;;;;6.63;5.57;;;18.60;30.70;;;;;;5109106;27;46735;-19
2022/01/17 03:30:48;;;;;;;7.18;6.00;;;18.60;30.70;;;;;;5109517;27;46959;-18
2022/01/17 03:33:17;;;;;;;6.93;5.85;;;18.60;30.70;;;;;;5109205;27;47313;-19
2022/01/17 03:35:44;;;;;;;6.22;5.63;;;18.60;30.80;;;;;;5108908;27;46952;-19
2022/01/17 03:38:12;;;;;;;6.63;5.80;;;18.60;30.80;;;;;;5108987;27;46807;-19
2022/01/17 03:40:39;;;;;;;6.97;5.63;;;18.60;30.80;;;;;;5109321;27;46888;-18
2022/01/17 03:43:05;;;;;;;7.60;6.05;;;18.60;30.80;;;;;;5109407;27;47197;-19
2022/01/17 03:45:32;;;;;;;6.85;5.97;;;18.60;30.70;;;;;;5109167;27;48232;-19
2022/01/17 03:48:00;;;;;;;7.85;5.88;;;18.60;30.70;;;;;;5108804;27;46928;-19
2022/01/17 03:50:27;;;;;;;7.28;6.20;;;18.60;30.80;;;;;;5109254;27;46943;-19
2022/01/17 03:52:54;;;;;;;7.68;6.10;;;18.60;30.70;;;;;;5109074;27;47208;-19
2022/01/17 03:55:21;;;;;;;7.80;5.97;;;18.60;30.80;;;;;;5108996;27;47915;-19
2022/01/17 03:57:48;;;;;;;6.70;5.68;;;18.60;30.80;;;;;;5108783;27;46907;-15
2022/01/17 04:00:17;;;;;;;6.80;5.80;;;18.60;30.70;;;;;;5108768;27;46971;-15
2022/01/17 04:02:44;;;;;;;6.75;5.60;;;18.60;30.70;;;;;;5108806;27;46848;-15
2022/01/17 04:05:12;;;;;;;7.00;6.03;;;18.60;30.70;;;;;;5108617;27;48772;-16
2022/01/17 04:07:38;;;;;;;7.70;6.25;;;18.50;30.70;;;;;;5108555;27;46997;-15
2022/01/17 04:10:06;;;;;;;6.85;6.05;;;18.50;30.70;;;;;;5108854;27;46860;-15
2022/01/17 04:12:33;;;;;;;8.00;6.20;;;18.60;30.80;;;;;;5108947;27;46940;-14
2022/01/17 04:14:59;;;;;;;7.40;6.18;;;18.50;30.60;;;;;;5108474;27;48033;-15
2022/01/17 04:17:28;;;;;;;6.65;5.95;;;18.60;30.70;;;;;;5108624;27;46874;-15
2022/01/17 04:20:02;;;;;;;6.78;5.97;;;18.60;30.70;;;;;;5108528;27;46950;-15
2022/01/17 04:22:34;;;;;;;6.47;5.43;;;18.50;30.70;;;;;;5108666;27;47262;-15
2022/01/17 04:25:01;;;;;;;7.50;6.10;;;18.50;30.70;;;;;;5108639;27;47087;-15
2022/01/17 04:27:27;;;;;;;7.15;6.07;;;18.60;30.70;;;;;;5108304;27;46820;-15
2022/01/17 04:29:54;;;;;;;6.40;5.63;;;18.60;30.70;;;;;;5108345;27;46824;-15
2022/01/17 04:32:21;;;;;;;7.40;5.75;;;18.60;30.60;;;;;;5108846;27;47176;-15
2022/01/17 04:34:47;;;;;;;7.68;6.40;;;18.60;30.60;;;;;;5108051;27;49415;-14
2022/01/17 04:37:14;;;;;;;6.70;5.90;;;18.60;30.60;;;;;;5108553;27;46895;-15
2022/01/17 04:39:42;;;;;;;7.20;6.20;;;18.60;30.60;;;;;;5107999;27;46921;-14
2022/01/17 04:42:12;;;;;;;6.90;6.13;;;18.60;30.60;;;;;;5108221;27;46985;-13
2022/01/17 04:47:32;;;;;;;6.45;5.30;;;18.50;30.50;;;;;;5057494;27;47011;-15
2022/01/17 04:49:58;;;;;;;7.65;5.80;;;18.50;30.60;;;;;;5108250;27;46990;-16
2022/01/17 04:52:26;;;;;;;7.70;5.70;;;18.50;30.50;;;;;;5108105;27;46903;-15
2022/01/17 04:54:59;;;;;;;6.45;5.07;;;18.50;30.50;;;;;;5095240;27;48096;-15
2022/01/17 04:57:25;;;;;;;6.50;5.63;;;18.50;30.60;;;;;;5087733;28;47007;-15
2022/01/17 04:59:52;;;;;;;6.95;5.60;;;18.50;30.60;;;;;;5087432;28;46998;-15
2022/01/17 05:02:19;;;;;;;6.80;6.10;;;18.50;30.50;;;;;;5087561;28;46842;-15
2022/01/17 05:04:46;;;;;;;6.85;5.60;;;18.50;30.50;;;;;;5086771;28;49108;-15
2022/01/17 05:07:12;;;;;;;6.57;5.60;;;18.50;30.50;;;;;;5087355;28;47096;-15
2022/01/17 05:09:40;;;;;;;6.95;6.07;;;18.50;30.50;;;;;;5087030;28;47297;-15
2022/01/17 05:12:10;;;;;;;7.40;6.13;;;18.40;30.50;;;;;;5087584;28;46934;-14
2022/01/17 05:14:39;;;;;;;7.55;5.88;;;18.50;30.60;;;;;;5086962;28;47991;-15
2022/01/17 05:17:22;;;;;;;6.63;5.72;;;18.50;30.50;;;;;;5087085;28;46979;-15
2022/01/17 05:19:49;;;;;;;6.90;5.35;;;18.50;30.40;;;;;;5087225;28;46861;-15
2022/01/17 05:22:16;;;;;;;6.38;5.55;;;18.50;30.40;;;;;;5087346;28;46919;-15
2022/01/17 05:24:43;;;;;;;7.60;5.78;;;18.50;30.40;;;;;;5086472;28;47171;-15
2022/01/17 05:27:11;;;;;;;7.40;5.35;;;18.50;30.50;;;;;;5087117;28;46916;-14
2022/01/17 05:29:37;;;;;;;6.28;5.20;;;18.50;30.50;;;;;;5086912;28;46850;-14
2022/01/17 05:32:05;;;;;;;7.65;5.95;;;18.50;30.50;;;;;;5087267;28;47167;-15
2022/01/17 05:34:33;;;;;;;6.47;5.53;;;18.50;30.50;;;;;;5086254;28;46853;-15
2022/01/17 05:37:00;;;;;;;6.82;5.95;;;18.50;30.50;;;;;;5086723;28;47395;-14
2022/01/17 05:39:27;;;;;;;6.22;5.63;;;18.50;30.50;;;;;;5085873;27;46811;-15
2022/01/17 05:41:54;;;;;;;6.47;5.57;;;18.50;30.50;;;;;;5086813;28;47163;-14
2022/01/17 05:44:22;;;;;;;6.22;5.63;;;18.50;30.50;;;;;;5086510;28;48079;-15
2022/01/17 05:46:48;;;;;;;6.90;5.57;;;18.50;30.60;;;;;;5086692;28;46876;-15
2022/01/17 05:49:15;;;;;;;6.70;5.35;;;18.50;30.50;;;;;;5086470;28;46813;-15
2022/01/17 05:51:42;;;;;;;7.25;5.90;;;18.50;30.50;;;;;;5086848;28;47237;-15
2022/01/17 05:54:08;;;;;;;6.25;5.50;;;18.50;30.40;;;;;;5086138;28;47650;-14
2022/01/17 05:56:35;;;;;;;5.82;5.22;;;18.50;30.50;;;;;;5086577;28;47023;-15
2022/01/17 05:59:02;;;;;;;7.10;5.85;;;18.50;30.50;;;;;;5086200;28;46880;-14
2022/01/17 06:01:30;;;;;;;6.35;5.22;;;18.50;30.50;;;;;;5086468;28;47150;-15
2022/01/17 06:03:56;;;;;;;6.72;5.50;;;18.50;30.50;;;;;;5086141;28;48030;-15
2022/01/17 06:06:23;;;;;;;6.72;6.03;;;18.50;30.50;;;;;;5086469;28;46893;-20
2022/01/17 06:08:50;;;;;;;6.50;5.50;;;18.50;30.50;;;;;;5086274;28;46937;-19
2022/01/17 06:11:16;;;;;;;6.07;5.47;;;18.50;30.50;;;;;;5086303;28;46946;-19
2022/01/17 06:13:44;;;;;;;5.82;5.15;;;18.50;30.50;;;;;;5086001;28;48877;-19
2022/01/17 06:16:11;;;;;;;6.53;5.50;;;18.50;30.60;;;;;;5086240;28;46904;-19
2022/01/17 06:18:39;;;;;;;6.93;5.32;;;18.50;30.50;;;;;;5085811;28;46821;-20
2022/01/17 06:21:06;;;;;;;6.35;5.40;;;18.50;30.50;;;;;;5086462;28;46862;-19
2022/01/17 06:23:32;;;;;;;7.30;5.65;;;18.60;31.20;;;;;;5085688;28;48556;-19
2022/01/17 06:25:59;;;;;;;6.25;5.60;;;18.60;30.60;;;;;;5086440;28;46865;-19
2022/01/17 06:28:26;;;;;;;5.55;5.05;;;18.60;30.50;;;;;;5085768;28;46836;-19
2022/01/17 06:30:53;;;;;;;6.18;5.47;;;18.50;30.50;;;;;;5086240;28;47281;-19
2022/01/17 06:33:19;;;;;;;6.57;5.30;;;18.50;30.60;;;;;;5085386;28;46940;-20
2022/01/17 06:35:47;;;;;;;6.18;5.40;;;18.50;30.60;;;;;;5085697;28;47028;-19
2022/01/17 06:38:14;;;;;;;6.20;5.60;;;18.60;30.60;;;;;;5085681;28;46850;-19
2022/01/17 06:40:41;;;;;;;6.78;5.32;;;18.60;30.60;;;;;;5085808;28;46916;-19
2022/01/17 06:43:08;;;;;;;5.97;5.13;;;18.60;30.60;;;;;;5085721;28;49129;-19
2022/01/17 06:45:35;;;;;;;5.85;5.05;;;18.50;30.50;;;;;;5085525;28;46898;-19
2022/01/17 06:48:02;;;;;;;6.38;5.15;;;18.50;30.60;;;;;;5085812;28;46981;-19
2022/01/17 06:50:29;;;;;;;6.50;5.60;;;18.50;30.60;;;;;;5084907;27;47282;-19
2022/01/17 06:52:57;;;;;;;6.35;5.25;;;18.60;30.70;;;;;;5085591;28;48910;-19
2022/01/17 06:55:24;;;;;;;7.10;6.05;;;18.60;30.60;;;;;;5085667;28;47061;-20
2022/01/17 06:57:50;;;;;;;6.75;5.53;;;18.60;30.60;;;;;;5085531;28;46886;-19
2022/01/17 07:00:17;;;;;;;5.75;5.15;;;18.60;30.60;;;;;;5085863;28;47085;-19
2022/01/17 07:02:44;;;;;;;6.03;5.43;;;18.50;30.60;;;;;;5085242;27;47947;-19
2022/01/17 07:05:11;;;;;;;5.93;5.03;;;18.60;30.60;;;;;;5085564;28;47025;-19
2022/01/17 07:07:37;;;;;;;5.88;5.15;;;18.60;30.70;;;;;;5085502;28;46743;-19
2022/01/17 07:10:06;;;;;;;5.68;5.13;;;18.60;31.20;;;;;;5085261;28;47020;-19
2022/01/17 07:12:35;;;;;;;6.90;5.25;;;18.60;30.70;;;;;;5062998;28;47037;-19
2022/01/17 07:15:02;;;;;;;5.35;4.85;;;18.60;30.60;;;;;;5062722;28;47200;-19
2022/01/17 07:17:28;;;;;;;6.53;5.28;;;18.60;30.60;;;;;;5071187;28;46987;-20
2022/01/17 07:20:01;;;;;;;5.80;5.20;;;18.60;30.70;;;;;;5075713;28;46930;-20
2022/01/17 07:22:29;;;;;;;7.35;5.63;;;18.60;30.40;;;;;;5071640;28;47106;-20
2022/01/17 07:24:56;;;;;;;6.53;5.18;;;18.60;31.30;;;;;;5072838;28;47121;-20
2022/01/17 07:27:26;;;;;;;6.53;5.18;;;18.60;30.70;;;;;;5075423;28;47022;-20
2022/01/17 07:30:05;;;;;;;5.97;5.22;;;18.60;30.60;;;;;;5063738;28;47457;-20
2022/01/17 07:32:32;;;;;;;6.10;5.35;;;18.60;30.60;;;;;;5075490;28;48224;-20
2022/01/17 07:35:00;;;;;;;5.68;4.75;;;18.60;30.70;;;;;;5072743;28;47791;-21
2022/01/17 07:37:27;;;;;;;6.35;5.55;;;18.60;30.60;;;;;;5072642;28;46819;-20
2022/01/17 07:39:54;;;;;;;6.53;5.53;;;18.60;30.70;;;;;;5075641;28;46949;-20
2022/01/17 07:42:21;;;;;;;7.43;5.22;;;18.60;30.50;;;;;;5074505;28;47440;-20
2022/01/17 07:44:54;;;;;;;5.53;4.70;;;18.60;30.70;;;;;;5073048;28;47609;-20
2022/01/17 07:47:27;;;;;;;6.72;5.43;;;18.60;30.70;;;;;;5073907;28;46864;-20
2022/01/17 07:49:55;;;;;;;7.03;5.53;;;18.60;30.70;;;;;;5066866;28;46925;-20
2022/01/17 07:52:22;;;;;;;6.05;5.45;;;18.60;30.60;;;;;;5063548;28;48970;-20
2022/01/17 07:54:49;;;;;;;6.10;5.25;;;18.60;30.80;;;;;;5062716;28;46902;-20
2022/01/17 07:57:16;;;;;;;6.65;5.28;;;18.60;30.70;;;;;;5062814;28;47112;-20
2022/01/17 07:59:43;;;;;;;5.70;5.07;;;18.60;30.70;;;;;;5063106;28;46828;-20
2022/01/17 08:02:11;;;;;;;5.47;4.97;;;18.60;30.60;;;;;;5063850;28;49098;-20
2022/01/17 08:04:38;;;;;;;6.30;5.50;;;18.60;30.70;;;;;;5066181;28;47240;-20
2022/01/17 08:07:07;;;;;;;5.68;4.93;;;18.60;30.60;;;;;;5067026;28;47038;-20
2022/01/17 08:09:34;;;;;;;6.28;5.38;;;18.60;30.60;;;;;;5067552;28;46914;-20
2022/01/17 08:12:01;;;;;;;7.43;5.22;;;18.60;30.70;;;;;;5067617;28;47829;-20
2022/01/17 08:14:28;;;;;;;6.85;5.50;;;18.60;30.60;;;;;;5067927;28;46937;-16
2022/01/17 08:16:55;;;;;;;6.65;5.28;;;18.60;30.60;;;;;;5067634;28;46821;-16
2022/01/17 08:19:24;;;;;;;6.85;5.60;;;18.60;30.60;;;;;;5067671;28;46715;-16
2022/01/17 08:21:52;;;;;;;5.80;5.20;;;18.60;30.70;;;;;;5067702;28;47920;-15
2022/01/17 08:24:40;;;;;;;6.68;5.38;;;18.60;30.70;;;;;;5067582;28;46924;-16
2022/01/17 08:27:07;;;;;;;7.50;6.25;;;18.60;30.20;;;;;;5068005;28;46870;-20
2022/01/17 08:29:34;;;;;;;7.65;5.78;;;18.60;30.70;;;;;;5067357;28;47195;-19
2022/01/17 08:32:05;;;;;;;7.18;6.05;;;18.70;30.80;;;;;;5067279;28;49036;-20
2022/01/17 08:34:33;;;;;;;8.70;6.05;;;18.70;30.70;;;;;;5068585;28;47191;-20
2022/01/17 08:37:01;;;;;;;8.32;6.90;;;18.70;30.50;;;;;;5079758;28;46978;-20
2022/01/17 08:39:28;;;;;;;9.25;6.65;;;18.70;30.70;;;;;;5077735;27;47378;-17
2022/01/17 08:41:55;;;;;;;8.93;6.55;;;18.70;30.60;;;;;;5066624;28;47789;-17
2022/01/17 08:44:22;;;;;;;7.93;6.43;;;18.70;30.30;;;;;;5066738;28;46990;-16
2022/01/17 08:46:49;;;;;;;7.90;6.57;;;18.70;30.60;;;;;;5078899;28;46905;-16
2022/01/17 08:49:18;;;;;;;8.55;7.03;;;18.70;30.60;;;;;;5073747;28;47304;-16
2022/01/17 08:51:47;;;;;;;8.85;7.20;;;18.70;30.70;;;;;;5070877;28;47105;-16
2022/01/17 08:54:14;;;;;;;7.82;6.90;;;18.70;30.70;;;;;;5077642;28;46989;-15
2022/01/17 08:56:40;;;;;;;7.85;6.47;;;18.70;30.70;;;;;;5067519;28;46950;-15
2022/01/17 08:59:07;;;;;;;8.30;6.70;;;18.70;30.70;;;;;;5065753;28;46993;-15
2022/01/17 09:01:34;;;;;;;6.82;6.13;;;18.70;30.80;;;;;;5084602;28;49007;-16
2022/01/17 09:04:00;;;;;;;9.75;7.22;;;18.70;30.80;;;;;;5083657;28;47016;-15
2022/01/17 09:06:27;;;;;;;7.57;6.35;;;18.70;30.80;;;;;;5085420;28;46815;-16
2022/01/17 09:08:55;;;;;;;8.50;6.75;;;18.80;30.80;;;;;;5086394;28;46896;-15
2022/01/17 09:11:22;;;;;;;7.45;6.60;;;18.80;30.80;;;;;;5086450;28;46927;-15
2022/01/17 09:13:49;;;;;;;8.73;7.15;;;18.80;30.80;;;;;;5086285;27;46916;-15
2022/01/17 09:16:15;;;;;;;8.80;6.88;;;18.80;30.80;;;;;;5087348;28;46889;-15
2022/01/17 09:18:42;;;;;;;9.00;7.20;;;18.70;30.80;;;;;;5087210;28;47293;-15
2022/01/17 09:21:09;;;;;;;10.80;7.97;;;18.80;31.00;;;;;;5086859;28;48096;-15
2022/01/17 09:23:36;;;;;;;8.00;6.72;;;18.80;31.00;;;;;;5086857;28;46884;-14
2022/01/17 09:26:04;;;;;;;8.82;7.40;;;18.80;31.00;;;;;;5086989;28;46842;-15
2022/01/17 09:28:31;;;;;;;8.70;6.45;;;18.80;31.00;;;;;;5087019;28;47226;-14
2022/01/17 09:30:58;;;;;;;9.93;7.35;;;18.80;31.00;;;;;;5087047;28;46968;-15
2022/01/17 09:33:24;;;;;;;9.57;7.20;;;18.80;31.00;;;;;;5086494;28;46914;-15
2022/01/17 09:35:51;;;;;;;9.77;7.28;;;18.80;31.00;;;;;;5087147;28;46957;-15
2022/01/17 09:38:18;;;;;;;9.93;7.32;;;18.80;31.10;;;;;;5086965;28;46946;-15
2022/01/17 09:40:44;;;;;;;9.77;7.25;;;18.80;31.20;;;;;;5086823;28;49015;-14
2022/01/17 09:43:12;;;;;;;8.57;7.32;;;18.80;31.20;;;;;;5084164;28;46882;-15
2022/01/17 09:45:39;;;;;;;10.32;7.13;;;18.70;31.20;;;;;;5086496;28;46847;-15
2022/01/17 09:48:08;;;;;;;10.35;7.57;;;18.70;31.20;;;;;;5082175;28;47028;-15
2022/01/17 09:50:46;;;;;;;9.77;7.32;;;18.70;31.30;;;;;;5074358;28;47039;-15
2022/01/17 09:53:14;;;;;;;7.97;7.15;;;18.70;31.40;;;;;;5086358;28;46801;-16
2022/01/17 09:55:41;;;;;;;9.40;7.53;;;18.70;31.40;;;;;;5085837;28;46960;-15
2022/01/17 09:58:09;;;;;;;9.98;8.18;;;18.70;31.40;;;;;;5077325;28;47152;-15
2022/01/17 10:00:38;;;;;;;8.50;7.60;;;18.70;31.30;;;;;;5065870;28;47852;-16
2022/01/17 10:03:06;;;;;;;12.85;7.65;;;18.80;31.40;;;;;;5066141;28;47044;-17
2022/01/17 10:05:34;;;;;;;10.73;7.75;;;18.80;31.40;;;;;;5066222;28;46887;-15
2022/01/17 10:08:03;;;;;;;10.27;7.18;;;18.80;31.40;;;;;;5086593;28;47280;-15
2022/01/17 10:10:38;;;;;;;13.10;8.07;;;18.80;31.40;;;;;;5086345;28;48820;-15
2022/01/17 10:13:06;;;;;;;11.90;8.02;;;18.80;31.40;;;;;;5081264;28;47018;-15
2022/01/17 10:15:44;;;;;;;10.30;7.70;;;18.80;31.40;;;;;;5066103;28;46897;-15
2022/01/17 10:18:25;;;;;;;11.27;8.00;;;18.80;31.50;;;;;;5070344;28;46878;-15
2022/01/17 10:20:56;;;;;;;10.85;7.55;;;18.80;31.40;;;;;;5086267;28;48832;-15
2022/01/17 10:23:30;;;;;;;11.10;8.13;;;18.90;31.40;;;;;;5072156;28;46912;-16
2022/01/17 10:26:07;;;;;;;10.32;8.40;;;18.80;31.40;;;;;;5065690;28;46994;-16
2022/01/17 10:28:56;;;;;;;12.13;7.68;;;18.80;31.20;;;;;;5070933;28;47243;-17
2022/01/17 10:34:53;;;;;;;13.93;7.65;;;18.80;31.30;;;;;;5078013;28;48093;-16
2022/01/17 10:37:10;;;;;;;14.98;7.63;;;18.90;31.50;;;;;;5082172;28;47028;-16
2022/01/17 10:39:38;;;;;;;12.30;7.38;;;18.90;31.50;;;;;;5084544;28;46897;-15
2022/01/17 10:42:23;;;;;;;14.77;8.02;;;18.90;31.50;;;;;;5084924;27;46912;-16
2022/01/17 10:44:50;;;;;;;15.23;7.47;;;18.90;31.50;;;;;;5085902;28;46963;-16
2022/01/17 10:47:21;;;;;;;10.52;7.32;;;18.90;31.50;;;;;;5085921;28;46743;-15
2022/01/17 10:49:50;;;;;;;11.68;7.63;;;18.90;31.50;;;;;;5086035;28;46925;-16
2022/01/17 10:52:28;;;;;;;10.45;7.45;;;18.90;31.60;;;;;;5085412;28;49062;-16
2022/01/17 10:54:56;;;;;;;12.50;7.38;;;18.90;31.60;;;;;;5085836;28;46905;-15
2022/01/17 10:57:23;;;;;;;10.18;8.02;;;18.90;31.60;;;;;;5085490;28;46947;-15
2022/01/17 10:59:51;;;;;;;11.02;7.53;;;18.90;31.60;;;;;;5085697;28;47298;-16
2022/01/17 11:02:18;;;;;;;8.50;7.20;;;18.90;31.60;;;;;;5085737;28;49067;-16
2022/01/17 11:04:45;;;;;;;12.60;8.05;;;18.90;31.60;;;;;;5085071;28;46945;-15
2022/01/17 11:07:13;;;;;;;10.90;7.30;;;18.90;31.60;;;;;;5085177;27;46833;-16
2022/01/17 11:09:40;;;;;;;8.80;7.25;;;18.90;31.70;;;;;;5085318;27;46783;-15
2022/01/17 11:12:10;;;;;;;12.73;7.65;;;18.90;31.70;;;;;;5085259;28;47836;-15
2022/01/17 11:14:37;;;;;;;14.77;8.70;;;18.90;31.80;;;;;;5085329;27;47166;-15
2022/01/17 11:17:10;;;;;;;9.80;7.63;;;18.90;31.70;;;;;;5085528;28;46965;-15
2022/01/17 11:22:23;;;;;;;10.85;7.30;;;18.90;31.80;;;;;;5082616;28;46900;-16
2022/01/17 11:24:50;;;;;;;10.85;7.30;;;18.90;31.80;;;;;;5085112;28;46872;-15
2022/01/17 11:27:16;;;;;;;10.45;7.38;;;18.90;31.80;;;;;;5085392;28;46748;-15
2022/01/17 11:29:43;;;;;;;10.45;7.90;;;18.90;31.90;;;;;;5085262;28;47182;-15
2022/01/17 11:32:10;;;;;;;11.18;7.90;;;18.90;32.00;;;;;;5085218;28;46884;-16
2022/01/17 11:34:36;;;;;;;10.00;7.50;;;18.90;32.00;;;;;;5084780;28;46840;-15
2022/01/17 11:37:03;;;;;;;8.15;7.30;;;18.90;31.90;;;;;;5086251;28;46903;-15
2022/01/17 11:39:31;;;;;;;10.68;7.53;;;18.90;32.00;;;;;;5087407;28;46873;-15
2022/01/17 11:41:58;;;;;;;10.38;7.25;;;19.00;31.90;;;;;;5068447;28;48884;-15
2022/01/17 11:44:32;;;;;;;9.93;7.28;;;19.00;32.00;;;;;;5068084;28;46926;-15
2022/01/17 11:46:59;;;;;;;11.77;7.35;;;19.00;32.00;;;;;;5068471;28;46966;-16
2022/01/17 11:49:28;;;;;;;9.43;7.57;;;19.00;32.00;;;;;;5068460;28;46871;-16
2022/01/17 11:51:56;;;;;;;12.07;7.93;;;19.00;32.00;;;;;;5067171;28;48054;-15
2022/01/17 11:54:24;;;;;;;7.07;6.38;;;19.00;32.10;;;;;;5067813;28;47046;-15
2022/01/17 11:56:52;;;;;;;9.40;6.97;;;19.00;32.10;;;;;;5068209;28;46830;-15
2022/01/17 11:59:41;;;;;;;8.73;7.28;;;19.00;32.10;;;;;;5068456;28;47243;-15
2022/01/17 12:02:29;;;;;;;10.43;7.22;;;19.00;32.10;;;;;;5067797;28;47906;-15
2022/01/17 12:05:43;;;;;;;9.35;6.45;;;19.00;32.10;;;;;;5063986;28;47447;-16
2022/01/17 12:08:10;;;;;;;9.43;6.38;;;19.00;32.10;;;;;;5067547;28;46856;-15
2022/01/17 12:10:42;;;;;;;11.90;7.30;;;19.00;32.10;;;;;;5067965;28;47096;-15
2022/01/17 12:13:34;;;;;;;10.20;6.75;;;19.00;32.20;;;;;;5067385;28;47860;-15
2022/01/17 12:16:06;;;;;;;9.60;6.90;;;19.00;32.30;;;;;;5061891;28;46860;-15
2022/01/17 12:18:34;;;;;;;8.30;6.25;;;19.00;32.20;;;;;;5067770;28;46886;-15
2022/01/17 12:21:19;;;;;;;8.23;6.60;;;19.00;32.20;;;;;;5068076;28;47246;-15
2022/01/17 12:23:46;;;;;;;8.10;6.55;;;19.00;32.20;;;;;;5067513;28;47846;-16
2022/01/17 12:26:25;;;;;;;8.57;6.60;;;19.10;32.30;;;;;;5085211;28;47063;-15
2022/01/17 12:28:54;;;;;;;9.77;6.60;;;19.10;32.20;;;;;;5079286;28;46904;-15
2022/01/17 12:31:39;;;;;;;9.05;6.20;;;19.10;32.30;;;;;;5067626;28;46912;-15
2022/01/17 12:34:17;;;;;;;8.07;6.32;;;19.10;32.40;;;;;;5083008;28;48165;-15
2022/01/17 12:36:46;;;;;;;9.77;6.75;;;19.10;32.40;;;;;;5077993;28;46960;-15
2022/01/17 12:39:14;;;;;;;6.78;5.90;;;19.10;32.40;;;;;;5071069;28;46928;-16
2022/01/17 12:41:42;;;;;;;8.35;6.25;;;19.10;32.20;;;;;;5068562;27;46877;-15
2022/01/17 12:44:20;;;;;;;7.70;6.15;;;19.10;32.40;;;;;;5066677;28;48376;-15
2022/01/17 12:46:49;;;;;;;8.25;5.95;;;19.10;32.50;;;;;;5067269;28;46927;-15
2022/01/17 12:49:16;;;;;;;8.20;5.43;;;19.10;32.50;;;;;;5065774;28;46889;-15
2022/01/17 12:51:42;;;;;;;8.45;5.47;;;19.10;32.50;;;;;;5067775;28;47088;-15
2022/01/17 12:54:11;;;;;;;6.78;5.32;;;19.10;32.50;;;;;;5066933;28;47235;-15
2022/01/17 12:56:41;;;;;;;6.45;5.60;;;19.10;32.50;;;;;;5067016;28;47157;-15
2022/01/17 12:59:09;;;;;;;8.80;5.65;;;19.10;32.50;;;;;;5066784;28;46981;-20
2022/01/17 13:01:40;;;;;;;6.55;5.10;;;19.10;32.70;;;;;;5067168;28;47312;-19
2022/01/17 13:04:09;;;;;;;8.70;5.40;;;19.10;32.80;;;;;;5070420;28;46874;-16